Leuchars, United Kingdom

12:43 PM BST on October 23, 2014 (GMT +0100)
Warwick close | Change Station
CLOSE
Current Station
Personal Weather Station
Location: Leuchars,
Elevation: 36 ft
Nearby Weather Stations

Elev 36 ft 56.38 °N, 2.88 °W | Updated 3 seconds ago

Scattered Clouds
Scattered Clouds
55.6 °F
Feels Like 55.6 °F
N
15.2
Wind Variable Wind from SW
Gusts 16.8 mph

Today
High -- | Low -- °F
--% Chance of Precip.
Yesterday
High -- | Low -- °F
Precip. -- in
8:00 AM 5:50 PM
Waning Crescent, 0% visible
Pressure 29.74 in
Visibility 6.2 miles
Clouds Scattered Clouds 1500 ft
Dew Point 50 °F
Humidity 81%
Rainfall 0.00 in
Snow Depth Not available.
UV 0.0 out of 12
Pollen Not available.
Air Quality Not available.
Flu Activity Not available.
METAR EGPN 231120Z 24018KT 9999 SCT015 12/10 Q1007

More Conditions Fewer Conditions

Pressure 29.74 in
Visibility 6.2 miles
Clouds Scattered Clouds 1500 ft
Dew Point 50 °F
Humidity 81%
Rainfall 0.00 in
Snow Depth Not available.
UV 0.0 out of 12
Pollen Not available.
Air Quality Not available.
Flu Activity Not available.
METAR EGPN 231120Z 24018KT 9999 SCT015 12/10 Q1007

More Conditions Fewer Conditions

10-Day Weather Forecast

Almanac

Astronomy

Oct. 23, 2014 Rise Set
Actual Time 8:00 AM BST 5:50 PM BST
Civil Twilight 7:21 AM BST 6:29 PM BST
Nautical Twilight 6:37 AM BST 7:13 PM BST
Astronomical Twilight 5:53 AM BST 7:56 PM BST
Moon 7:19 AM BST 5:45 PM BST
Length of Visible Light 11h 08m
Length of Day
9h 50m
Tomorrow will be 4m 32s shorter.
Waning Crescent, 0% of the Moon is Illuminated
Today
Waning Crescent
Oct 23
New
Oct 30
First Quarter
Nov 6
Full
Nov 14
Last Quarter

Yesterday's Extremes

Country Highs Country Lows

Community

WunderPhotos

Upload Photos

1,764,209 photos uploaded!

Nearby

Snow Depth

Not available.

Earthquake Activity

City Distance Mag. Time & Date
No recent earthquake activity has been reported nearby.
Minimum magnitude displayed is 2.5.

Coastal Water Temperatures

Place Temperature
No Stations Reporting

Nearby Weather Stations